TimeEDT,TemperatureF,Dew PointF,Humidity,Sea Level PressureIn,VisibilityMPH,Wind Direction,Wind SpeedMPH,Gust SpeedMPH,PrecipitationIn,Events,Conditions,WindDirDegrees,DateUTC
12:51 AM,71.1,55.0,57,29.72,10.0,WNW,19.6,26.5,N/A,,Partly Cloudy,300,2013-06-12 04:51:00
1:51 AM,71.1,55.0,57,29.71,10.0,West,11.5,-,N/A,,Partly Cloudy,270,2013-06-12 05:51:00
2:51 AM,71.1,57.0,61,29.70,10.0,West,12.7,21.9,N/A,,Mostly Cloudy,270,2013-06-12 06:51:00
3:51 AM,69.1,57.9,68,29.70,10.0,WNW,11.5,-,N/A,,Partly Cloudy,300,2013-06-12 07:51:00
4:51 AM,68.0,55.0,63,29.73,10.0,NW,15.0,25.3,N/A,,Scattered Clouds,310,2013-06-12 08:51:00
5:51 AM,66.9,52.0,59,29.74,10.0,NW,17.3,31.1,N/A,,Partly Cloudy,310,2013-06-12 09:51:00
6:51 AM,66.0,51.1,59,29.76,10.0,WNW,19.6,27.6,N/A,,Partly Cloudy,300,2013-06-12 10:51:00
7:51 AM,66.0,48.9,54,29.77,10.0,NW,18.4,31.1,N/A,,Scattered Clouds,310,2013-06-12 11:51:00
8:51 AM,66.9,50.0,54,29.78,10.0,WNW,24.2,29.9,N/A,,Scattered Clouds,300,2013-06-12 12:51:00
9:51 AM,69.1,50.0,51,29.79,10.0,NW,20.7,26.5,N/A,,Scattered Clouds,320,2013-06-12 13:51:00
10:51 AM,70.0,50.0,49,29.79,10.0,NW,15.0,25.3,N/A,,Partly Cloudy,310,2013-06-12 14:51:00
11:51 AM,71.1,50.0,47,29.80,10.0,NW,21.9,25.3,N/A,,Scattered Clouds,310,2013-06-12 15:51:00
12:51 PM,73.0,51.1,46,29.79,10.0,NW,16.1,-,N/A,,Scattered Clouds,320,2013-06-12 16:51:00
1:51 PM,75.0,50.0,41,29.80,10.0,NW,19.6,27.6,N/A,,Mostly Cloudy,310,2013-06-12 17:51:00
2:51 PM,73.9,51.1,45,29.81,10.0,North,17.3,24.2,N/A,,Mostly Cloudy,350,2013-06-12 18:51:00
3:51 PM,75.0,48.9,40,29.80,10.0,NNW,16.1,25.3,N/A,,Mostly Cloudy,330,2013-06-12 19:51:00
4:51 PM,75.0,48.9,40,29.80,10.0,NW,13.8,20.7,N/A,,Scattered Clouds,320,2013-06-12 20:51:00
5:51 PM,75.0,50.0,41,29.81,10.0,WNW,13.8,20.7,N/A,,Scattered Clouds,300,2013-06-12 21:51:00
6:51 PM,75.9,48.9,38,29.81,10.0,NW,9.2,-,N/A,,Scattered Clouds,320,2013-06-12 22:51:00
7:51 PM,75.0,50.0,41,29.83,10.0,NW,10.4,-,N/A,,Scattered Clouds,320,2013-06-12 23:51:00
8:51 PM,72.0,52.0,49,29.84,10.0,NNW,6.9,-,N/A,,Scattered Clouds,330,2013-06-13 00:51:00
9:51 PM,73.0,50.0,44,29.84,10.0,NNW,4.6,-,N/A,,Scattered Clouds,340,2013-06-13 01:51:00
10:51 PM,72.0,51.1,48,29.83,10.0,Calm,Calm,-,N/A,,Partly Cloudy,0,2013-06-13 02:51:00
11:51 PM,70.0,52.0,53,29.82,10.0,Calm,Calm,-,N/A,,Scattered Clouds,0,2013-06-13 03:51:00